createdAt,value
2019-02-09T00:00:22.896Z,943.25
2019-02-09T00:01:22.861Z,943.25
2019-02-09T00:02:22.829Z,943.16
2019-02-09T00:03:22.812Z,943.16
2019-02-09T00:04:33.499Z,943.13
2019-02-09T00:05:23.153Z,943.08
2019-02-09T00:06:22.924Z,943.09
2019-02-09T00:07:23.052Z,943.09
2019-02-09T00:08:23.346Z,943.00
2019-02-09T00:09:22.951Z,943.01
2019-02-09T00:10:22.842Z,943.01
2019-02-09T00:11:23.345Z,943.13
2019-02-09T00:12:22.703Z,942.98
2019-02-09T00:13:23.749Z,943.06
2019-02-09T00:14:22.759Z,943.05
2019-02-09T00:15:22.707Z,943.00
2019-02-09T00:17:02.989Z,942.96
2019-02-09T00:17:22.667Z,942.94
2019-02-09T00:18:22.669Z,942.98
2019-02-09T00:19:22.696Z,942.96
2019-02-09T00:20:22.700Z,942.94
2019-02-09T00:21:23.655Z,942.92
2019-02-09T00:22:24.355Z,942.92
2019-02-09T00:23:22.622Z,942.92
2019-02-09T00:24:22.595Z,942.90
2019-02-09T00:25:22.568Z,942.91
2019-02-09T00:26:22.645Z,942.93
2019-02-09T00:27:23.588Z,942.85
2019-02-09T00:28:22.592Z,942.80
2019-02-09T00:29:22.607Z,942.84
2019-02-09T00:30:23.674Z,942.76
2019-02-09T00:31:23.286Z,942.68
2019-02-09T00:32:22.512Z,942.68
2019-02-09T00:33:22.508Z,942.66
2019-02-09T00:34:22.513Z,942.68
2019-02-09T00:35:22.514Z,942.69
2019-02-09T00:36:22.485Z,942.74
2019-02-09T00:37:22.497Z,942.69
2019-02-09T00:38:22.470Z,942.72
2019-02-09T00:39:22.404Z,942.73
2019-02-09T00:40:23.475Z,942.78
2019-02-09T00:41:23.522Z,942.78
2019-02-09T00:42:22.409Z,942.78
2019-02-09T00:43:22.398Z,942.78
2019-02-09T00:44:22.345Z,942.89
2019-02-09T00:45:22.318Z,942.88
2019-02-09T00:47:49.736Z,942.89
2019-02-09T00:48:49.423Z,942.94
2019-02-09T00:49:50.440Z,942.89
2019-02-09T00:50:50.339Z,942.91
2019-02-09T00:51:49.322Z,942.90
2019-02-09T00:52:50.266Z,942.97
2019-02-09T00:53:49.869Z,942.98
2019-02-09T00:54:49.286Z,942.94
2019-02-09T00:55:51.705Z,943.01
2019-02-09T00:56:50.174Z,942.93
2019-02-09T00:57:50.189Z,942.89
2019-02-09T00:59:03.549Z,942.92
2019-02-09T00:59:54.309Z,942.91
2019-02-09T01:00:49.083Z,942.86
2019-02-09T01:01:49.226Z,942.90
2019-02-09T01:02:49.858Z,942.88
2019-02-09T01:04:00.196Z,942.89
2019-02-09T01:04:57.849Z,942.92
2019-02-09T01:05:49.549Z,942.90
2019-02-09T01:07:01.422Z,942.94
2019-02-09T01:07:59.534Z,942.91
2019-02-09T01:08:49.318Z,942.91
2019-02-09T01:09:49.300Z,942.97
2019-02-09T01:10:49.397Z,942.90
2019-02-09T01:12:00.035Z,942.93
2019-02-09T01:12:49.209Z,942.97
2019-02-09T01:15:25.344Z,943.02
2019-02-09T01:16:14.288Z,942.98
2019-02-09T01:18:43.955Z,942.96
2019-02-09T01:19:43.499Z,942.98
2019-02-09T01:20:43.780Z,942.93
2019-02-09T01:21:43.631Z,942.98
2019-02-09T01:22:43.304Z,943.00
2019-02-09T01:23:44.314Z,942.93
2019-02-09T01:24:43.254Z,942.96
2019-02-09T01:25:43.235Z,942.81
2019-02-09T01:27:57.145Z,942.91
2019-02-09T01:29:07.002Z,942.90
2019-02-09T01:31:08.617Z,942.94
2019-02-09T01:32:08.700Z,942.96
2019-02-09T01:33:08.887Z,942.92
2019-02-09T01:34:08.518Z,942.92
2019-02-09T01:35:08.444Z,942.89
2019-02-09T01:36:09.434Z,942.90
2019-02-09T01:37:09.269Z,942.86
2019-02-09T01:38:20.882Z,942.93
2019-02-09T01:39:09.235Z,942.92
2019-02-09T01:40:08.626Z,942.96
2019-02-09T01:41:08.999Z,942.95
2019-02-09T01:42:08.360Z,942.89
2019-02-09T01:43:08.380Z,942.90
2019-02-09T01:44:08.332Z,942.89
2019-02-09T01:45:08.326Z,942.86
2019-02-09T01:46:08.272Z,942.82
2019-02-09T01:47:08.328Z,942.72
2019-02-09T01:48:09.329Z,942.75
2019-02-09T01:49:08.248Z,942.74
2019-02-09T01:50:09.244Z,942.75
2019-02-09T01:51:17.004Z,942.69
2019-02-09T01:52:17.713Z,942.70
2019-02-09T01:53:08.521Z,942.65
2019-02-09T01:54:17.993Z,942.63
2019-02-09T01:55:08.382Z,942.61
2019-02-09T01:56:08.418Z,942.66
2019-02-09T01:57:08.581Z,942.59
2019-02-09T01:58:08.332Z,942.52
2019-02-09T01:59:09.101Z,942.54
2019-02-09T02:00:10.717Z,942.52
2019-02-09T02:01:09.002Z,942.49
2019-02-09T02:02:09.133Z,942.45
2019-02-09T02:03:08.142Z,942.44
2019-02-09T02:04:08.073Z,942.48
2019-02-09T02:05:09.080Z,942.47
2019-02-09T02:06:08.114Z,942.42
2019-02-09T02:07:08.054Z,942.37
2019-02-09T02:08:08.060Z,942.42
2019-02-09T02:09:08.079Z,942.36
2019-02-09T02:10:08.103Z,942.32
2019-02-09T02:11:08.025Z,942.22
2019-02-09T02:12:08.036Z,942.21
2019-02-09T02:13:08.025Z,942.20
2019-02-09T02:14:07.973Z,942.16
2019-02-09T02:15:07.981Z,942.15
2019-02-09T02:16:07.963Z,942.13
2019-02-09T02:17:07.966Z,942.13
2019-02-09T02:18:07.968Z,942.05
2019-02-09T02:19:07.953Z,942.01
2019-02-09T02:20:08.022Z,941.93
2019-02-09T02:21:07.951Z,941.95
2019-02-09T02:22:07.899Z,941.86
2019-02-09T02:23:07.926Z,941.87
2019-02-09T02:24:08.855Z,941.83
2019-02-09T02:25:07.852Z,941.81
2019-02-09T02:26:07.942Z,941.78
2019-02-09T02:27:07.853Z,941.77
2019-02-09T02:28:07.831Z,941.81
2019-02-09T02:29:07.846Z,941.78
2019-02-09T02:30:07.840Z,941.76
2019-02-09T02:31:07.824Z,941.76
2019-02-09T02:32:08.021Z,941.69
2019-02-09T02:33:07.853Z,941.72
2019-02-09T02:34:07.764Z,941.66
2019-02-09T02:35:07.749Z,941.65
2019-02-09T02:36:07.764Z,941.61
2019-02-09T02:37:07.771Z,941.54
2019-02-09T02:38:08.690Z,941.50
2019-02-09T02:39:07.712Z,941.45
2019-02-09T02:40:07.686Z,941.41
2019-02-09T02:41:07.680Z,941.37
2019-02-09T02:42:07.691Z,941.37
2019-02-09T02:43:07.711Z,941.36
2019-02-09T02:44:07.639Z,941.29
2019-02-09T02:45:07.622Z,941.24
2019-02-09T02:46:08.550Z,941.33
2019-02-09T02:47:08.696Z,941.25
2019-02-09T02:48:07.656Z,941.34
2019-02-09T02:49:07.574Z,941.30
2019-02-09T02:50:07.569Z,941.28
2019-02-09T02:51:07.592Z,941.19
2019-02-09T02:52:07.576Z,941.25
2019-02-09T02:53:07.597Z,941.30
2019-02-09T02:54:07.549Z,941.24
2019-02-09T02:55:07.508Z,941.21
2019-02-09T02:56:07.526Z,941.18
2019-02-09T02:57:07.524Z,941.14
2019-02-09T02:58:07.519Z,941.22
2019-02-09T02:59:07.534Z,941.16
2019-02-09T03:00:07.480Z,941.10
2019-02-09T03:01:07.468Z,941.04
2019-02-09T03:02:07.549Z,940.96
2019-02-09T03:03:07.445Z,941.01
2019-02-09T03:04:08.133Z,940.97
2019-02-09T03:05:07.434Z,940.98
2019-02-09T03:06:08.044Z,940.97
2019-02-09T03:07:18.260Z,940.97
2019-02-09T03:08:08.164Z,940.84
2019-02-09T03:09:07.531Z,940.88
2019-02-09T03:10:07.599Z,940.90
2019-02-09T03:11:07.415Z,940.85
2019-02-09T03:12:07.394Z,940.79
2019-02-09T03:13:07.367Z,940.80
2019-02-09T03:14:07.368Z,940.77
2019-02-09T03:15:07.376Z,940.80
2019-02-09T03:16:07.302Z,940.77
2019-02-09T03:18:19.070Z,940.85
2019-02-09T03:19:19.204Z,940.82
2019-02-09T03:20:19.144Z,940.84
2019-02-09T03:21:18.781Z,940.86
2019-02-09T03:23:42.236Z,940.86
2019-02-09T03:24:42.334Z,940.93
2019-02-09T03:25:42.345Z,940.83
2019-02-09T03:26:42.423Z,940.87
2019-02-09T03:27:42.079Z,940.86
2019-02-09T03:28:42.014Z,941.00
2019-02-09T03:29:42.035Z,941.04
2019-02-09T03:30:47.601Z,941.09
2019-02-09T03:31:57.647Z,941.08
2019-02-09T03:32:42.022Z,941.05
2019-02-09T03:35:03.133Z,941.21
2019-02-09T03:36:18.813Z,941.21
2019-02-09T03:37:21.370Z,941.36
2019-02-09T03:38:03.065Z,941.28
2019-02-09T03:39:02.964Z,941.35
2019-02-09T03:40:13.651Z,941.39
2019-02-09T03:43:02.973Z,941.43
2019-02-09T03:44:14.964Z,941.37
2019-02-09T03:45:02.982Z,941.40
2019-02-09T03:46:02.964Z,941.35
2019-02-09T03:47:03.187Z,941.24
2019-02-09T03:48:15.183Z,941.28
2019-02-09T03:49:02.803Z,941.27
2019-02-09T03:50:23.016Z,941.32
2019-02-09T03:51:02.712Z,941.33
2019-02-09T03:52:02.767Z,941.21
2019-02-09T03:53:02.830Z,941.17
2019-02-09T03:54:02.596Z,941.12
2019-02-09T03:55:02.507Z,941.21
2019-02-09T03:56:02.456Z,941.16
2019-02-09T03:57:11.174Z,941.13
2019-02-09T03:58:03.491Z,941.21
2019-02-09T03:59:16.536Z,941.22
2019-02-09T04:00:14.147Z,941.21
2019-02-09T04:01:11.807Z,941.23
2019-02-09T04:02:12.274Z,941.32
2019-02-09T04:03:02.565Z,941.32
2019-02-09T04:04:02.532Z,941.32
2019-02-09T04:05:13.089Z,941.39
2019-02-09T04:06:12.899Z,941.43
2019-02-09T04:07:02.500Z,941.45
2019-02-09T04:08:02.603Z,941.55
2019-02-09T04:09:13.717Z,941.49
2019-02-09T04:10:13.416Z,941.54
2019-02-09T04:12:13.707Z,941.50
2019-02-09T04:13:13.736Z,941.48
2019-02-09T04:15:27.160Z,941.37
2019-02-09T04:16:27.442Z,941.51
2019-02-09T04:17:35.375Z,941.38
2019-02-09T04:18:35.972Z,941.30
2019-02-09T04:19:26.586Z,941.30
2019-02-09T04:20:26.702Z,941.27
2019-02-09T04:21:26.523Z,941.28
2019-02-09T04:23:46.724Z,941.11
2019-02-09T04:26:03.214Z,941.01
2019-02-09T04:27:02.826Z,941.05
2019-02-09T04:28:15.435Z,941.04
2019-02-09T04:29:11.800Z,941.00
2019-02-09T04:30:14.420Z,941.05
2019-02-09T04:31:05.826Z,940.98
2019-02-09T04:32:13.465Z,940.96
2019-02-09T04:33:13.601Z,940.98
2019-02-09T04:34:13.556Z,940.98
2019-02-09T04:36:28.051Z,940.96
2019-02-09T04:37:28.838Z,940.97
2019-02-09T04:38:27.778Z,940.95
2019-02-09T04:39:37.932Z,940.98
2019-02-09T04:41:57.388Z,940.87
2019-02-09T04:44:48.996Z,940.85
2019-02-09T04:47:45.715Z,940.93
2019-02-09T04:48:20.781Z,940.91
2019-02-09T04:49:25.027Z,940.95
2019-02-09T04:51:27.590Z,940.96
2019-02-09T04:54:00.719Z,940.97
2019-02-09T04:56:14.522Z,940.92
2019-02-09T04:58:48.539Z,940.88
2019-02-09T04:59:58.982Z,940.85
2019-02-09T05:00:48.492Z,940.96
2019-02-09T05:03:16.641Z,940.80
2019-02-09T05:04:10.960Z,940.87
2019-02-09T05:06:51.660Z,940.80
2019-02-09T05:08:00.143Z,940.84
2019-02-09T05:08:51.733Z,940.82
2019-02-09T05:10:01.773Z,940.74
2019-02-09T05:11:02.492Z,940.72
2019-02-09T05:12:03.503Z,940.67
2019-02-09T05:14:12.420Z,940.79
2019-02-09T05:20:49.311Z,940.83
2019-02-09T05:21:56.456Z,940.71
2019-02-09T05:22:39.779Z,940.80
2019-02-09T05:23:54.761Z,940.80
2019-02-09T05:24:49.784Z,940.78
2019-02-09T05:25:54.937Z,940.76
2019-02-09T05:26:40.458Z,940.75
2019-02-09T05:32:37.554Z,940.78
2019-02-09T05:35:05.836Z,940.76
2019-02-09T05:40:19.265Z,940.73
2019-02-09T05:46:27.006Z,940.88
2019-02-09T05:50:06.168Z,940.93
2019-02-09T05:51:17.932Z,941.01
2019-02-09T05:53:49.879Z,940.97
2019-02-09T05:56:03.737Z,941.07
2019-02-09T05:58:15.592Z,940.97
2019-02-09T05:59:34.509Z,941.03
2019-02-09T06:00:29.601Z,941.09
2019-02-09T06:01:15.549Z,941.06
2019-02-09T06:05:06.489Z,941.05
2019-02-09T06:06:07.228Z,941.06
2019-02-09T06:07:18.927Z,941.03
2019-02-09T06:09:27.661Z,940.95
2019-02-09T07:07:56.809Z,941.42
2019-02-09T07:11:28.624Z,941.44
2019-02-09T07:13:32.218Z,941.39
2019-02-09T07:16:12.980Z,941.31
2019-02-09T07:16:54.244Z,941.20
2019-02-09T07:23:04.158Z,941.34
2019-02-09T07:26:04.872Z,941.31
2019-02-09T07:41:02.881Z,941.33
2019-02-09T08:13:06.907Z,941.83
2019-02-09T08:14:08.395Z,941.74
2019-02-09T08:15:07.000Z,941.74
2019-02-09T08:16:07.102Z,941.72
2019-02-09T08:17:06.414Z,941.75
2019-02-09T08:19:19.840Z,941.79
2019-02-09T08:20:19.765Z,941.86
2019-02-09T08:21:20.844Z,941.71
2019-02-09T08:22:20.192Z,941.68
2019-02-09T08:23:20.530Z,941.72
2019-02-09T08:24:19.147Z,941.78
2019-02-09T08:25:36.803Z,941.80
2019-02-09T08:26:22.107Z,941.80
2019-02-09T08:27:36.855Z,941.89
2019-02-09T08:28:19.894Z,941.85
2019-02-09T08:29:31.213Z,941.96
2019-02-09T08:30:34.017Z,941.96
2019-02-09T08:31:19.883Z,941.87
2019-02-09T08:33:33.131Z,941.98
2019-02-09T08:34:32.508Z,941.97
2019-02-09T08:35:32.699Z,941.90
2019-02-09T08:36:33.684Z,941.89
2019-02-09T08:37:32.178Z,941.96
2019-02-09T08:38:33.125Z,942.01
2019-02-09T08:39:37.050Z,941.88
2019-02-09T08:40:32.082Z,941.91
2019-02-09T08:41:32.191Z,941.92
2019-02-09T08:42:32.076Z,941.97
2019-02-09T08:43:35.017Z,941.95
2019-02-09T08:44:32.088Z,941.93
2019-02-09T08:45:33.026Z,941.90
2019-02-09T08:46:33.540Z,941.93
2019-02-09T08:47:55.514Z,941.94
2019-02-09T08:48:32.075Z,941.94
2019-02-09T08:49:32.555Z,941.82
2019-02-09T08:50:33.491Z,941.87
2019-02-09T08:51:33.113Z,941.84
2019-02-09T08:52:32.001Z,941.84
2019-02-09T08:53:33.451Z,941.84
2019-02-09T08:54:32.569Z,941.80
2019-02-09T08:55:31.973Z,941.80
2019-02-09T08:56:33.311Z,941.87
2019-02-09T08:57:32.424Z,941.75
2019-02-09T08:58:31.968Z,941.83
2019-02-09T08:59:32.583Z,941.80
2019-02-09T09:00:31.931Z,941.78
2019-02-09T09:01:31.975Z,941.74
2019-02-09T09:04:09.836Z,941.63
2019-02-09T09:04:59.085Z,941.61
2019-02-09T09:05:57.436Z,941.58
2019-02-09T09:06:57.013Z,941.55
2019-02-09T09:07:57.982Z,941.47
2019-02-09T09:08:57.873Z,941.53
2019-02-09T09:09:58.430Z,941.54
2019-02-09T09:10:56.877Z,941.56
2019-02-09T09:11:57.860Z,941.47
2019-02-09T09:12:57.827Z,941.45
2019-02-09T09:13:56.856Z,941.50
2019-02-09T09:14:58.805Z,941.48
2019-02-09T09:15:57.824Z,941.50
2019-02-09T09:16:56.771Z,941.56
2019-02-09T09:19:32.033Z,941.62
2019-02-09T09:20:32.120Z,941.57
2019-02-09T09:21:31.920Z,941.64
2019-02-09T09:22:32.716Z,941.69
2019-02-09T09:23:32.646Z,941.64
2019-02-09T09:24:31.711Z,941.71
2019-02-09T09:25:31.640Z,941.73
2019-02-09T09:26:31.704Z,941.75
2019-02-09T09:27:31.587Z,941.86
2019-02-09T09:28:31.671Z,941.79
2019-02-09T09:29:32.555Z,941.84
2019-02-09T09:30:31.573Z,941.90
2019-02-09T09:31:32.657Z,941.95
2019-02-09T09:32:32.623Z,941.90
2019-02-09T09:33:32.572Z,942.08
2019-02-09T09:34:32.522Z,942.19
2019-02-09T09:35:32.484Z,941.94
2019-02-09T09:36:31.460Z,942.03
2019-02-09T09:37:31.527Z,942.05
2019-02-09T09:38:31.542Z,942.07
2019-02-09T09:39:31.486Z,941.96
2019-02-09T09:40:31.415Z,942.01
2019-02-09T09:41:31.446Z,942.01
2019-02-09T09:42:31.361Z,942.00
2019-02-09T09:43:33.918Z,942.00
2019-02-09T09:44:31.395Z,942.11
2019-02-09T09:45:31.355Z,942.05
2019-02-09T09:46:32.285Z,942.17
2019-02-09T09:48:07.319Z,942.08
2019-02-09T09:48:31.334Z,942.02
2019-02-09T09:49:31.285Z,942.12
2019-02-09T09:50:31.338Z,942.14
2019-02-09T09:51:32.345Z,942.08
2019-02-09T09:52:31.287Z,942.14
2019-02-09T09:53:31.307Z,942.09
2019-02-09T09:54:31.321Z,942.11
2019-02-09T09:55:31.240Z,942.09
2019-02-09T09:56:31.190Z,942.15
2019-02-09T09:57:31.185Z,942.10
2019-02-09T09:58:31.217Z,942.12
2019-02-09T09:59:31.225Z,942.13
2019-02-09T10:00:31.189Z,942.16
2019-02-09T10:01:31.158Z,942.20
2019-02-09T10:02:36.429Z,942.17
2019-02-09T10:03:32.117Z,942.24
2019-02-09T10:04:31.656Z,942.22
2019-02-09T10:05:31.091Z,942.37
2019-02-09T10:06:31.107Z,942.37
2019-02-09T10:07:31.094Z,942.39
2019-02-09T10:08:31.081Z,942.41
2019-02-09T10:09:31.062Z,942.46
2019-02-09T10:10:31.129Z,942.62
2019-02-09T10:11:31.029Z,942.57
2019-02-09T10:12:31.071Z,942.63
2019-02-09T10:13:31.000Z,942.62
2019-02-09T10:14:31.016Z,942.70
2019-02-09T10:15:30.989Z,942.56
2019-02-09T10:16:30.964Z,942.66
2019-02-09T10:17:31.658Z,942.65
2019-02-09T10:18:31.045Z,942.66
2019-02-09T10:19:31.653Z,942.65
2019-02-09T10:20:30.945Z,942.69
2019-02-09T10:21:30.949Z,942.68
2019-02-09T10:22:30.903Z,942.62
2019-02-09T10:23:30.891Z,942.72
2019-02-09T10:24:30.868Z,942.68
2019-02-09T10:25:30.854Z,942.81
2019-02-09T10:26:30.863Z,942.73
2019-02-09T10:27:30.856Z,942.68
2019-02-09T10:28:38.657Z,942.67
2019-02-09T10:29:54.185Z,942.74
2019-02-09T10:30:35.659Z,942.78
2019-02-09T10:31:34.164Z,942.79
2019-02-09T10:32:34.165Z,942.85
2019-02-09T10:33:47.696Z,942.75
2019-02-09T10:34:44.656Z,942.82
2019-02-09T10:35:39.717Z,942.72
2019-02-09T10:36:34.682Z,942.85
2019-02-09T10:37:40.206Z,942.77
2019-02-09T10:38:34.655Z,942.84
2019-02-09T10:39:37.183Z,942.93
2019-02-09T10:40:31.662Z,942.93
2019-02-09T10:41:34.183Z,942.88
2019-02-09T10:42:35.664Z,942.84
2019-02-09T10:43:33.168Z,942.91
2019-02-09T10:44:33.165Z,942.89
2019-02-09T10:45:36.675Z,942.93
2019-02-09T10:47:43.037Z,942.86
2019-02-09T10:48:40.930Z,942.93
2019-02-09T10:49:41.039Z,942.90
2019-02-09T10:50:40.856Z,942.83
2019-02-09T10:51:40.828Z,942.95
2019-02-09T10:52:40.870Z,942.95
2019-02-09T10:53:40.862Z,942.97
2019-02-09T10:54:40.796Z,942.93
2019-02-09T10:55:40.790Z,943.11
2019-02-09T10:56:40.770Z,942.88
2019-02-09T10:57:40.783Z,942.94
2019-02-09T10:58:40.743Z,942.97
2019-02-09T10:59:40.772Z,942.92
2019-02-09T11:00:40.739Z,943.01
2019-02-09T11:01:40.714Z,942.93
2019-02-09T11:02:40.701Z,942.95
2019-02-09T11:03:40.717Z,942.99
2019-02-09T11:04:40.674Z,942.94
2019-02-09T11:05:40.671Z,943.02
2019-02-09T11:06:40.653Z,942.92
2019-02-09T11:07:40.647Z,942.92
2019-02-09T11:08:40.628Z,942.91
2019-02-09T11:09:40.628Z,942.93
2019-02-09T11:10:41.583Z,942.77
2019-02-09T11:11:40.598Z,942.92
2019-02-09T11:12:40.585Z,942.84
2019-02-09T11:13:40.592Z,942.97
2019-02-09T11:14:40.561Z,942.86
2019-02-09T11:15:40.597Z,942.97
2019-02-09T11:16:40.546Z,942.81
2019-02-09T11:17:40.543Z,942.91
2019-02-09T11:18:40.542Z,942.85
2019-02-09T11:19:40.498Z,942.92
2019-02-09T11:20:40.489Z,942.85
2019-02-09T11:21:40.494Z,942.75
2019-02-09T11:22:40.482Z,942.97
2019-02-09T11:23:40.465Z,942.84
2019-02-09T11:24:40.447Z,942.86
2019-02-09T11:25:40.441Z,942.86
2019-02-09T11:26:40.438Z,942.91
2019-02-09T11:27:40.410Z,942.97
2019-02-09T11:28:40.415Z,942.95
2019-02-09T11:29:40.396Z,942.92
2019-02-09T11:30:40.379Z,942.98
2019-02-09T11:31:40.387Z,942.86
2019-02-09T11:32:40.355Z,942.91
2019-02-09T11:33:40.340Z,942.95
2019-02-09T11:34:40.356Z,943.11
2019-02-09T11:35:40.320Z,942.90
2019-02-09T11:36:40.311Z,942.91
2019-02-09T11:37:40.309Z,942.84
2019-02-09T11:38:40.287Z,942.91
2019-02-09T11:39:40.278Z,942.89
2019-02-09T11:40:40.294Z,942.87
2019-02-09T11:41:40.253Z,942.85
2019-02-09T11:42:40.274Z,942.77
2019-02-09T11:43:40.233Z,942.79
2019-02-09T11:44:41.374Z,942.76
2019-02-09T11:45:40.206Z,942.77
2019-02-09T11:46:40.215Z,942.79
2019-02-09T11:47:40.184Z,942.83
2019-02-09T11:48:40.197Z,942.79
2019-02-09T11:49:40.170Z,942.77
2019-02-09T11:50:40.149Z,942.78
2019-02-09T11:51:40.141Z,942.79
2019-02-09T11:52:40.144Z,942.79
2019-02-09T11:53:40.131Z,942.78
2019-02-09T11:54:40.099Z,942.83
2019-02-09T11:55:40.097Z,942.83
2019-02-09T11:56:40.093Z,942.78
2019-02-09T11:57:40.070Z,942.81
2019-02-09T11:58:40.074Z,942.74
2019-02-09T11:59:40.054Z,942.77
2019-02-09T12:00:40.040Z,942.81
2019-02-09T12:01:40.027Z,942.89
2019-02-09T12:02:40.002Z,942.78
2019-02-09T12:03:40.069Z,942.73
2019-02-09T12:04:40.030Z,942.91
2019-02-09T12:05:39.982Z,942.85
2019-02-09T12:06:39.971Z,942.94
2019-02-09T12:07:39.962Z,942.83
2019-02-09T12:08:39.948Z,942.92
2019-02-09T12:09:39.939Z,942.95
2019-02-09T12:10:39.952Z,942.95
2019-02-09T12:11:39.921Z,942.95
2019-02-09T12:12:39.898Z,943.04
2019-02-09T12:13:39.883Z,942.96
2019-02-09T12:14:39.879Z,943.07
2019-02-09T12:15:39.876Z,943.08
2019-02-09T12:16:39.866Z,943.00
2019-02-09T12:17:39.842Z,943.00
2019-02-09T12:18:39.839Z,943.13
2019-02-09T12:19:39.823Z,943.06
2019-02-09T12:20:39.839Z,943.09
2019-02-09T12:21:39.797Z,942.98
2019-02-09T12:22:39.808Z,942.98
2019-02-09T12:23:39.778Z,943.03
2019-02-09T12:24:39.765Z,943.12
2019-02-09T12:25:39.759Z,943.16
2019-02-09T12:26:39.754Z,942.93
2019-02-09T12:27:39.727Z,942.95
2019-02-09T12:28:39.740Z,943.11
2019-02-09T12:29:39.704Z,943.14
2019-02-09T12:30:39.711Z,943.14
2019-02-09T12:31:39.705Z,943.15
2019-02-09T12:32:39.755Z,943.18
2019-02-09T12:33:39.662Z,943.17
2019-02-09T12:34:39.655Z,943.17
2019-02-09T12:35:39.651Z,943.13
2019-02-09T12:36:39.634Z,943.30
2019-02-09T12:37:39.636Z,943.20
2019-02-09T12:38:39.657Z,943.12
2019-02-09T12:39:39.596Z,943.17
2019-02-09T12:40:39.580Z,943.17
2019-02-09T12:41:39.573Z,943.19
2019-02-09T12:42:39.589Z,943.25
2019-02-09T12:43:39.544Z,943.13
2019-02-09T12:44:39.535Z,943.08
2019-02-09T12:45:39.527Z,943.24
2019-02-09T12:46:39.516Z,943.16
2019-02-09T12:47:39.529Z,943.29
2019-02-09T12:48:39.535Z,943.29
2019-02-09T12:49:39.484Z,943.29
2019-02-09T12:50:40.085Z,943.23
2019-02-09T12:51:39.460Z,943.26
2019-02-09T12:52:39.500Z,943.22
2019-02-09T12:53:39.455Z,943.21
2019-02-09T12:54:39.446Z,943.18
2019-02-09T12:55:39.409Z,943.23
2019-02-09T12:56:39.397Z,943.17
2019-02-09T12:57:39.389Z,943.19
2019-02-09T12:58:39.425Z,943.17
2019-02-09T12:59:39.366Z,943.13
2019-02-09T13:00:39.369Z,943.28
2019-02-09T13:01:40.110Z,943.17
2019-02-09T13:02:39.329Z,943.14
2019-02-09T13:03:39.326Z,943.16
2019-02-09T13:04:39.338Z,943.19
2019-02-09T13:05:39.294Z,943.19
2019-02-09T13:06:39.296Z,943.18
2019-02-09T13:07:48.754Z,943.04
2019-02-09T13:08:48.767Z,943.31
2019-02-09T13:10:50.651Z,943.36
2019-02-09T13:13:03.960Z,943.23
2019-02-09T13:14:03.886Z,943.37
2019-02-09T13:15:13.759Z,943.18
2019-02-09T13:16:14.728Z,943.17
2019-02-09T13:17:03.870Z,943.21
2019-02-09T13:18:03.788Z,943.24
2019-02-09T13:19:16.253Z,943.24
2019-02-09T13:20:14.300Z,943.19
2019-02-09T13:21:03.821Z,943.33
2019-02-09T13:22:03.779Z,943.02
2019-02-09T13:23:03.746Z,943.34
2019-02-09T13:24:14.212Z,943.19
2019-02-09T13:25:03.849Z,943.26
2019-02-09T13:26:12.617Z,943.24
2019-02-09T13:27:03.737Z,943.36
2019-02-09T13:28:03.742Z,943.18
2019-02-09T13:29:13.404Z,943.29
2019-02-09T13:31:15.157Z,943.34
2019-02-09T13:32:24.496Z,943.34
2019-02-09T13:34:26.317Z,943.32
2019-02-09T13:35:26.221Z,943.17
2019-02-09T13:36:26.299Z,943.29
2019-02-09T13:37:26.164Z,943.24
2019-02-09T13:39:39.408Z,943.22
2019-02-09T13:41:50.624Z,943.19
2019-02-09T13:44:02.036Z,943.12
2019-02-09T13:45:02.541Z,943.12
2019-02-09T13:46:01.934Z,943.08
2019-02-09T13:47:01.923Z,943.14
2019-02-09T13:48:11.621Z,943.20
2019-02-09T13:49:01.898Z,943.24
2019-02-09T13:50:01.941Z,943.17
2019-02-09T13:51:01.914Z,943.21
2019-02-09T13:52:01.995Z,943.20
2019-02-09T13:53:10.511Z,943.24
2019-02-09T13:55:14.345Z,943.24
2019-02-09T13:56:14.258Z,943.32
2019-02-09T13:57:14.806Z,943.31
2019-02-09T13:58:14.237Z,943.32
2019-02-09T13:59:22.843Z,943.36
2019-02-09T14:00:14.172Z,943.30
2019-02-09T14:02:04.583Z,943.30
2019-02-09T14:03:04.445Z,943.38
2019-02-09T14:05:22.636Z,943.35
2019-02-09T14:06:22.508Z,943.47
2019-02-09T14:07:22.525Z,943.49
2019-02-09T14:08:34.724Z,943.46
2019-02-09T14:09:22.457Z,943.40
2019-02-09T14:10:22.443Z,943.51
2019-02-09T14:11:22.398Z,943.30
2019-02-09T14:12:22.391Z,943.39
2019-02-09T14:13:32.793Z,943.50
2019-02-09T14:14:22.397Z,943.39
2019-02-09T14:15:22.435Z,943.47
2019-02-09T14:16:22.337Z,943.50
2019-02-09T14:17:22.398Z,943.52
2019-02-09T14:18:22.389Z,943.51
2019-02-09T14:19:22.438Z,943.52
2019-02-09T14:20:22.297Z,943.51
2019-02-09T14:21:22.270Z,943.56
2019-02-09T14:22:22.281Z,943.58
2019-02-09T14:23:22.250Z,943.64
2019-02-09T14:24:22.250Z,943.55
2019-02-09T14:25:22.235Z,943.65
2019-02-09T14:26:22.218Z,943.57
2019-02-09T14:27:22.213Z,943.57
2019-02-09T14:28:22.194Z,943.60
2019-02-09T14:29:22.213Z,943.50
2019-02-09T14:30:30.882Z,943.49
2019-02-09T14:31:22.239Z,943.48
2019-02-09T14:32:22.207Z,943.56
2019-02-09T14:33:55.448Z,943.58
2019-02-09T14:34:22.168Z,943.60
2019-02-09T14:35:22.155Z,943.59
2019-02-09T14:36:22.148Z,943.55
2019-02-09T14:37:22.152Z,943.57
2019-02-09T14:38:22.121Z,943.67
2019-02-09T14:39:22.109Z,943.68
2019-02-09T14:40:22.197Z,943.65
2019-02-09T14:41:22.044Z,943.60
2019-02-09T14:42:22.055Z,943.59
2019-02-09T14:43:22.020Z,943.61
2019-02-09T14:44:22.010Z,943.64
2019-02-09T14:45:22.032Z,943.58
2019-02-09T14:46:22.008Z,943.61
2019-02-09T14:47:21.971Z,943.61
2019-02-09T14:48:22.032Z,943.61
2019-02-09T14:49:21.950Z,943.62
2019-02-09T14:50:21.956Z,943.59
2019-02-09T14:51:21.934Z,943.66
2019-02-09T14:52:21.929Z,943.48
2019-02-09T14:53:21.930Z,943.72
2019-02-09T14:54:21.898Z,943.60
2019-02-09T14:55:21.887Z,943.62
2019-02-09T14:56:21.889Z,943.66
2019-02-09T14:57:21.900Z,943.45
2019-02-09T14:58:22.371Z,943.60
2019-02-09T14:59:21.835Z,943.53
2019-02-09T15:00:21.832Z,943.52
2019-02-09T15:01:21.826Z,943.52
2019-02-09T15:02:21.886Z,943.43
2019-02-09T15:03:26.918Z,943.50
2019-02-09T15:04:22.784Z,943.51
2019-02-09T15:05:21.774Z,943.52
2019-02-09T15:06:21.761Z,943.61
2019-02-09T15:07:21.763Z,943.63
2019-02-09T15:08:21.781Z,943.65
2019-02-09T15:09:21.721Z,943.56
2019-02-09T15:10:21.715Z,943.61
2019-02-09T15:11:21.705Z,943.67
2019-02-09T15:12:22.766Z,943.55
2019-02-09T15:13:21.681Z,943.54
2019-02-09T15:14:21.746Z,943.56
2019-02-09T15:15:21.674Z,943.50
2019-02-09T15:16:21.651Z,943.55
2019-02-09T15:17:21.640Z,943.64
2019-02-09T15:18:21.636Z,943.65
2019-02-09T15:19:21.647Z,943.68
2019-02-09T15:20:21.635Z,943.62
2019-02-09T15:21:21.593Z,943.67
2019-02-09T15:22:21.599Z,943.64
2019-02-09T15:23:21.571Z,943.73
2019-02-09T15:24:21.563Z,943.76
2019-02-09T15:25:21.558Z,943.78
2019-02-09T15:26:21.542Z,943.82
2019-02-09T15:27:21.532Z,943.74
2019-02-09T15:28:21.516Z,943.76
2019-02-09T15:29:21.501Z,943.81
2019-02-09T15:30:21.508Z,943.83
2019-02-09T15:31:21.490Z,943.84
2019-02-09T15:32:21.476Z,943.86
2019-02-09T15:33:21.481Z,943.94
2019-02-09T15:34:21.441Z,943.95
2019-02-09T15:35:21.461Z,943.98
2019-02-09T15:36:21.421Z,943.98
2019-02-09T15:37:21.426Z,944.02
2019-02-09T15:38:21.402Z,944.02
2019-02-09T15:39:21.422Z,944.01
2019-02-09T15:40:21.376Z,943.91
2019-02-09T15:41:21.394Z,944.06
2019-02-09T15:42:21.361Z,944.08
2019-02-09T15:43:21.348Z,944.14
2019-02-09T15:44:21.333Z,944.06
2019-02-09T15:45:21.325Z,943.97
2019-02-09T15:46:21.353Z,944.03
2019-02-09T15:47:21.299Z,944.04